Time;durP1;ratioP1;P1;durP2;ratioP2;P2;SDS_P1;SDS_P2;PMS_P1;PMS_P2;Temp;Humidity;BMP_temperature;BMP_pressure;BME280_temperature;BME280_humidity;BME280_pressure;Samples;Min_cycle;Max_cycle;Signal;HPM_P1;HPM_P2
2022/12/17 13:08:03;;;;;;;38.60;18.73;;;;;;;-4.03;100.00;101953.81;5058417;28;20700;-72
2022/12/17 13:10:31;;;;;;;27.37;12.90;;;;;;;-4.06;100.00;101957.06;5062486;28;20654;-71
2022/12/17 13:13:06;;;;;;;36.50;16.00;;;;;;;-4.08;100.00;101961.22;5056360;28;20198;-74
2022/12/17 13:15:40;;;;;;;38.70;14.77;;;;;;;-4.08;100.00;101963.75;5056838;28;20202;-69
2022/12/17 13:18:20;;;;;;;35.00;16.73;;;;;;;-4.07;100.00;101970.59;5039080;28;20390;-71
2022/12/17 13:20:58;;;;;;;33.20;14.93;;;;;;;-4.07;100.00;101967.19;5059268;28;20205;-70
2022/12/17 13:23:32;;;;;;;39.93;16.07;;;;;;;-4.06;100.00;101968.94;5059949;28;20277;-69
2022/12/17 13:26:16;;;;;;;33.67;14.03;;;;;;;-4.07;100.00;101972.28;5059760;28;20195;-69
2022/12/17 13:28:49;;;;;;;29.07;11.63;;;;;;;-4.06;100.00;101981.69;5059328;28;20226;-71
2022/12/17 13:31:20;;;;;;;37.77;16.73;;;;;;;-4.06;100.00;101982.56;5058782;28;20309;-71
2022/12/17 13:33:59;;;;;;;33.20;14.83;;;;;;;-4.07;100.00;101983.34;5039443;28;20491;-70
2022/12/17 13:36:31;;;;;;;28.13;14.30;;;;;;;-4.05;100.00;101981.75;5051832;28;20281;-70
2022/12/17 13:39:05;;;;;;;33.27;16.73;;;;;;;-4.04;100.00;101986.06;5053521;28;20627;-71
2022/12/17 13:41:34;;;;;;;33.53;14.40;;;;;;;-4.07;100.00;101980.78;5057064;28;20186;-69
2022/12/17 13:44:02;;;;;;;33.83;14.97;;;;;;;-4.08;100.00;101981.59;5054895;28;20214;-69
2022/12/17 13:46:35;;;;;;;33.80;13.03;;;;;;;-4.11;100.00;101990.75;5057498;28;20222;-71
2022/12/17 13:49:15;;;;;;;28.77;13.30;;;;;;;-4.13;100.00;101997.41;5037994;28;20222;-71
2022/12/17 13:51:42;;;;;;;27.50;11.60;;;;;;;-4.12;100.00;102007.69;5039604;28;20194;-71
2022/12/17 13:54:16;;;;;;;31.20;12.97;;;;;;;-4.11;100.00;101998.38;5053792;28;20187;-71
2022/12/17 13:56:42;;;;;;;31.77;13.03;;;;;;;-4.12;100.00;101992.41;5058447;28;20618;-71
2022/12/17 13:59:18;;;;;;;32.50;13.80;;;;;;;-4.15;100.00;101999.88;5056332;28;20819;-69
2022/12/17 14:01:46;;;;;;;27.67;15.03;;;;;;;-4.20;100.00;101998.75;5058559;28;20210;-69
2022/12/17 14:04:21;;;;;;;29.27;12.47;;;;;;;-4.23;100.00;102009.63;5055669;28;20525;-71
2022/12/17 14:06:48;;;;;;;23.10;10.60;;;;;;;-4.29;100.00;102022.03;5061684;28;20677;-71
2022/12/17 14:09:17;;;;;;;27.20;13.30;;;;;;;-4.28;100.00;102030.53;5061386;28;20445;-71
2022/12/17 14:14:31;;;;;;;30.47;12.73;;;;;;;-4.33;100.00;102026.84;5066150;28;20452;-71
2022/12/17 14:16:58;;;;;;;24.63;12.90;;;;;;;-4.33;100.00;102026.84;5064084;28;20468;-71
2022/12/17 14:19:27;;;;;;;24.03;12.23;;;;;;;-4.30;100.00;102024.50;5067043;28;20256;-71
2022/12/17 14:21:54;;;;;;;30.10;12.07;;;;;;;-4.30;100.00;102030.44;5067074;28;20208;-71
2022/12/17 14:24:25;;;;;;;24.27;11.43;;;;;;;-4.30;100.00;102025.34;5063886;28;20515;-71
2022/12/17 14:26:54;;;;;;;25.83;12.10;;;;;;;-4.31;100.00;102035.47;5065854;28;20196;-70
2022/12/17 14:29:23;;;;;;;24.70;11.23;;;;;;;-4.35;100.00;102041.19;5048385;28;20219;-71
2022/12/17 14:31:54;;;;;;;24.60;11.83;;;;;;;-4.36;100.00;102045.41;5062807;28;20210;-71
2022/12/17 14:34:22;;;;;;;25.70;11.07;;;;;;;-4.38;100.00;102050.41;5067675;28;20202;-72
2022/12/17 14:36:56;;;;;;;24.03;11.70;;;;;;;-4.34;100.00;102055.66;5062268;28;20464;-69
2022/12/17 14:39:25;;;;;;;25.50;11.53;;;;;;;-4.37;100.00;102058.91;5066314;28;20491;-70
2022/12/17 14:44:49;;;;;;;22.27;11.60;;;;;;;-4.42;100.00;102061.19;5062294;28;20596;-71
2022/12/17 14:47:19;;;;;;;25.87;12.13;;;;;;;-4.44;100.00;102060.22;5064990;28;20194;-70
2022/12/17 14:49:55;;;;;;;23.40;11.10;;;;;;;-4.46;100.00;102071.13;5067107;28;20221;-71
2022/12/17 14:52:27;;;;;;;27.93;12.23;;;;;;;-4.53;100.00;102074.97;5067872;28;20451;-71
2022/12/17 14:54:54;;;;;;;32.17;12.50;;;;;;;-4.54;100.00;102077.41;5060624;28;20206;-71
2022/12/17 14:57:22;;;;;;;28.43;12.20;;;;;;;-4.54;100.00;102078.28;5060893;28;20210;-69
2022/12/17 14:59:49;;;;;;;22.87;10.83;;;;;;;-4.53;100.00;102085.16;5042838;28;21063;-71
2022/12/17 15:02:22;;;;;;;24.30;11.13;;;;;;;-4.58;100.00;102091.63;5044909;28;21000;-72
2022/12/17 15:04:49;;;;;;;22.80;10.63;;;;;;;-4.57;100.00;102088.31;5063042;28;20567;-71
2022/12/17 15:07:23;;;;;;;25.27;10.83;;;;;;;-4.61;100.00;102088.91;5049274;28;20627;-69
2022/12/17 15:09:52;;;;;;;24.07;10.97;;;;;;;-4.69;100.00;102097.78;5059640;28;20709;-71
2022/12/17 15:12:18;;;;;;;21.90;10.97;;;;;;;-4.70;100.00;102094.31;5043245;28;20456;-72
2022/12/17 15:14:45;;;;;;;25.67;10.80;;;;;;;-4.70;100.00;102090.91;5062069;28;21902;-70
2022/12/17 15:17:11;;;;;;;25.07;11.30;;;;;;;-4.74;100.00;102100.03;5062024;28;21436;-72
2022/12/17 15:19:39;;;;;;;29.03;12.67;;;;;;;-4.76;100.00;102102.47;5062626;28;20223;-72
2022/12/17 15:22:05;;;;;;;21.13;11.03;;;;;;;-4.77;100.00;102104.94;5061521;28;20972;-71
2022/12/17 15:24:31;;;;;;;22.87;11.13;;;;;;;-4.76;100.00;102104.16;5064756;28;20472;-71
2022/12/17 15:26:59;;;;;;;20.17;11.57;;;;;;;-4.70;100.00;102108.72;5045535;28;20492;-71
2022/12/17 15:29:25;;;;;;;26.60;12.10;;;;;;;-4.74;100.00;102110.22;5064482;28;20490;-72
2022/12/17 15:31:52;;;;;;;23.17;11.30;;;;;;;-4.74;100.00;102101.72;5058409;28;20962;-71
2022/12/17 15:34:18;;;;;;;18.30;9.10;;;;;;;-4.76;100.00;102114.34;5063624;28;20460;-73
2022/12/17 15:36:44;;;;;;;21.63;11.43;;;;;;;-4.77;100.00;102116.00;5064480;28;20195;-70
2022/12/17 15:39:11;;;;;;;23.67;11.27;;;;;;;-4.76;100.00;102116.88;5066514;28;20484;-73
2022/12/17 15:44:22;;;;;;;23.53;10.13;;;;;;;-4.83;100.00;102120.72;5064299;28;20494;-72
2022/12/17 15:46:48;;;;;;;23.07;10.47;;;;;;;-4.84;100.00;102125.72;5061416;28;20452;-71
2022/12/17 15:49:15;;;;;;;24.50;9.73;;;;;;;-4.85;100.00;102121.44;5040018;28;20480;-71
2022/12/17 15:51:41;;;;;;;22.07;10.83;;;;;;;-4.84;100.00;102124.03;5043126;28;20655;-72
2022/12/17 15:54:08;;;;;;;20.53;9.90;;;;;;;-4.83;100.00;102118.19;5058525;28;20462;-71
2022/12/17 15:56:36;;;;;;;22.27;11.27;;;;;;;-4.84;100.00;102113.84;5061529;28;20467;-72
2022/12/17 15:59:04;;;;;;;31.83;15.07;;;;;;;-4.84;100.00;102123.16;5061986;28;20663;-72
2022/12/17 16:01:32;;;;;;;26.97;12.20;;;;;;;-4.86;100.00;102124.75;5058020;28;20468;-69
2022/12/17 16:03:59;;;;;;;23.30;11.33;;;;;;;-4.88;100.00;102121.22;5043256;28;20457;-73
2022/12/17 16:06:25;;;;;;;22.70;11.13;;;;;;;-4.88;100.00;102116.16;5057926;28;20573;-70
2022/12/17 16:08:51;;;;;;;22.20;10.53;;;;;;;-4.88;100.00;102123.78;5059778;28;20488;-71
2022/12/17 16:11:18;;;;;;;22.67;11.33;;;;;;;-4.88;100.00;102128.88;5064522;28;20467;-72
2022/12/17 16:13:44;;;;;;;20.63;9.50;;;;;;;-4.86;100.00;102124.75;5043456;28;20459;-72
2022/12/17 16:16:10;;;;;;;22.90;10.43;;;;;;;-4.87;100.00;102139.16;5063446;28;20530;-72
2022/12/17 16:18:38;;;;;;;23.97;10.90;;;;;;;-4.87;100.00;102138.25;5046209;28;20490;-73
2022/12/17 16:21:06;;;;;;;24.63;10.97;;;;;;;-4.86;100.00;102148.50;5056330;28;20468;-72
2022/12/17 16:23:33;;;;;;;20.97;10.43;;;;;;;-4.88;100.00;102149.22;5041139;28;20463;-72
2022/12/17 16:26:02;;;;;;;21.50;10.73;;;;;;;-4.88;100.00;102144.13;5044285;28;20472;-72
2022/12/17 16:28:30;;;;;;;22.87;11.40;;;;;;;-4.89;100.00;102142.38;5058605;28;20480;-72
2022/12/17 16:30:58;;;;;;;19.63;8.23;;;;;;;-4.92;100.00;102150.69;5060794;28;20474;-70
2022/12/17 16:33:25;;;;;;;19.93;10.20;;;;;;;-4.91;100.00;102144.81;5060514;28;20463;-70
2022/12/17 16:35:53;;;;;;;21.97;9.47;;;;;;;-4.92;100.00;102145.63;5062717;28;20543;-72
2022/12/17 16:38:20;;;;;;;23.57;12.13;;;;;;;-4.95;100.00;102143.75;5061291;28;20477;-72
2022/12/17 16:40:46;;;;;;;22.60;11.30;;;;;;;-4.95;100.00;102153.91;5038690;28;20491;-73
2022/12/17 16:43:13;;;;;;;23.20;9.90;;;;;;;-4.96;100.00;102154.72;5042845;28;20460;-72
2022/12/17 16:45:47;;;;;;;24.40;11.57;;;;;;;-4.98;100.00;102157.94;5059948;28;20472;-73
2022/12/17 16:48:13;;;;;;;26.83;12.13;;;;;;;-4.99;100.00;102163.84;5041366;28;20464;-72
2022/12/17 16:50:39;;;;;;;21.47;10.87;;;;;;;-5.00;100.00;102159.53;5060150;28;20885;-72
2022/12/17 16:53:07;;;;;;;30.07;11.50;;;;;;;-5.00;100.00;102157.84;5060908;28;20466;-73
2022/12/17 16:55:39;;;;;;;18.73;10.50;;;;;;;-5.00;100.00;102164.59;5062402;28;21042;-71
2022/12/17 16:58:05;;;;;;;20.07;9.70;;;;;;;-5.04;100.00;102165.22;5039988;28;20456;-73
2022/12/17 17:00:33;;;;;;;21.50;11.57;;;;;;;-5.05;100.00;102164.31;5058604;28;20475;-71
2022/12/17 17:02:59;;;;;;;20.60;9.87;;;;;;;-5.03;100.00;102177.13;5036018;28;20455;-72
2022/12/17 17:05:26;;;;;;;22.23;11.07;;;;;;;-5.01;100.00;102170.50;5042441;28;20483;-73
2022/12/17 17:07:53;;;;;;;23.77;10.60;;;;;;;-5.03;100.00;102175.50;5041699;28;20460;-71
2022/12/17 17:10:21;;;;;;;27.60;11.40;;;;;;;-5.08;100.00;102181.94;5067929;22;20614;-69
2022/12/17 17:12:50;;;;;;;20.27;10.27;;;;;;;-5.05;100.00;102181.25;5055262;28;20471;-69
2022/12/17 17:15:17;;;;;;;19.10;9.47;;;;;;;-5.05;100.00;102178.69;5055976;28;20458;-69
2022/12/17 17:17:43;;;;;;;27.90;11.43;;;;;;;-5.04;100.00;102183.88;5059609;28;20460;-71
2022/12/17 17:20:11;;;;;;;22.60;10.47;;;;;;;-5.06;100.00;102187.13;5054018;28;20494;-69
2022/12/17 17:22:38;;;;;;;18.97;9.03;;;;;;;-5.08;100.00;102192.13;5056187;28;20461;-69
2022/12/17 17:25:05;;;;;;;17.23;9.23;;;;;;;-5.08;100.00;102183.59;5055807;28;20476;-69
2022/12/17 17:27:32;;;;;;;17.83;9.03;;;;;;;-5.06;100.00;102182.91;5057542;28;20452;-67
2022/12/17 17:29:59;;;;;;;26.47;11.50;;;;;;;-5.05;100.00;102191.44;5047999;28;20856;-68
2022/12/17 17:32:25;;;;;;;24.27;11.67;;;;;;;-5.07;100.00;102193.00;5052023;28;20805;-69
2022/12/17 17:34:52;;;;;;;23.03;10.30;;;;;;;-5.07;100.00;102198.09;5028780;28;20462;-68
2022/12/17 17:37:18;;;;;;;24.27;10.67;;;;;;;-5.09;100.00;102200.53;5031603;28;20467;-69
2022/12/17 17:39:45;;;;;;;22.73;9.93;;;;;;;-5.12;100.00;102200.31;5048356;28;20483;-69
2022/12/17 17:42:11;;;;;;;21.50;9.40;;;;;;;-5.07;100.00;102205.72;5048402;28;21016;-69
2022/12/17 17:44:39;;;;;;;23.63;10.17;;;;;;;-5.09;100.00;102210.69;5051975;28;20545;-69
2022/12/17 17:47:05;;;;;;;23.50;10.00;;;;;;;-5.08;100.00;102211.56;5049281;28;20480;-69
2022/12/17 17:49:31;;;;;;;20.73;10.57;;;;;;;-5.09;100.00;102217.47;5053567;28;20817;-69
2022/12/17 17:51:58;;;;;;;22.70;9.40;;;;;;;-5.15;100.00;102220.50;5052967;28;20460;-69
2022/12/17 17:54:24;;;;;;;26.30;10.87;;;;;;;-5.14;100.00;102225.69;5053610;28;20849;-69
2022/12/17 17:56:51;;;;;;;22.63;10.70;;;;;;;-5.12;100.00;102228.31;5039482;28;20979;-69
2022/12/17 17:59:18;;;;;;;22.23;10.67;;;;;;;-5.13;100.00;102227.44;5052693;28;20483;-68
2022/12/17 18:01:49;;;;;;;17.53;8.67;;;;;;;-5.14;100.00;102228.25;5054319;28;20509;-68
2022/12/17 18:04:18;;;;;;;20.60;9.80;;;;;;;-5.15;100.00;102226.47;5050326;28;20456;-69
2022/12/17 18:06:45;;;;;;;17.10;8.83;;;;;;;-5.14;100.00;102240.06;5050284;28;20491;-68
2022/12/17 18:09:12;;;;;;;21.87;11.63;;;;;;;-5.20;100.00;102238.00;5053247;28;20503;-69
2022/12/17 18:11:40;;;;;;;24.50;10.53;;;;;;;-5.23;100.00;102240.34;5052063;28;20455;-69
2022/12/17 18:14:07;;;;;;;26.33;11.60;;;;;;;-5.24;100.00;102243.69;5051534;28;20459;-69
2022/12/17 18:16:37;;;;;;;28.47;11.90;;;;;;;-5.18;100.00;102246.59;5036236;28;20457;-68
2022/12/17 18:19:07;;;;;;;26.27;10.93;;;;;;;-5.17;100.00;102250.94;5052892;28;20497;-69
2022/12/17 18:21:33;;;;;;;29.10;11.40;;;;;;;-5.19;100.00;102246.50;5050163;28;20460;-69
2022/12/17 18:24:03;;;;;;;29.07;11.67;;;;;;;-5.17;100.00;102245.84;5052212;28;20818;-70
2022/12/17 18:26:32;;;;;;;25.33;11.37;;;;;;;-5.18;100.00;102254.25;5048217;28;20483;-68
2022/12/17 18:29:01;;;;;;;27.23;10.73;;;;;;;-5.17;100.00;102253.47;5053638;28;20535;-68
2022/12/17 18:31:31;;;;;;;27.70;12.40;;;;;;;-5.14;100.00;102252.78;5049238;28;20460;-69
2022/12/17 18:34:01;;;;;;;23.13;10.77;;;;;;;-5.14;100.00;102251.13;5050493;28;20866;-69
2022/12/17 18:36:30;;;;;;;25.30;11.57;;;;;;;-5.16;100.00;102256.88;5054664;28;22100;-69
2022/12/17 18:38:58;;;;;;;33.33;12.80;;;;;;;-5.20;100.00;102257.47;5051204;28;20483;-68
2022/12/17 18:44:10;;;;;;;27.53;11.27;;;;;;;-5.11;100.00;102260.59;5055172;28;20477;-69
2022/12/17 18:46:37;;;;;;;31.60;12.90;;;;;;;-5.13;100.00;102260.50;5053255;28;20488;-69
2022/12/17 18:49:05;;;;;;;24.27;11.63;;;;;;;-5.18;100.00;102261.00;5051412;28;20498;-69
2022/12/17 18:51:33;;;;;;;30.07;12.77;;;;;;;-5.15;100.00;102266.28;5049838;28;20470;-69
2022/12/17 18:54:02;;;;;;;25.67;12.17;;;;;;;-5.22;100.00;102264.13;5054846;28;20466;-69
2022/12/17 18:56:29;;;;;;;30.50;14.57;;;;;;;-5.22;100.00;102264.13;5055831;28;20942;-69
2022/12/17 18:58:56;;;;;;;25.70;11.60;;;;;;;-5.23;100.00;102273.41;5041672;28;20982;-69
2022/12/17 19:01:25;;;;;;;27.00;11.60;;;;;;;-5.25;100.00;102272.44;5059413;28;20463;-69
2022/12/17 19:03:52;;;;;;;27.60;11.27;;;;;;;-5.23;100.00;102275.09;5051553;28;20463;-69
2022/12/17 19:06:19;;;;;;;24.77;11.97;;;;;;;-5.24;100.00;102274.22;5053735;28;20492;-68
2022/12/17 19:08:47;;;;;;;27.27;12.00;;;;;;;-5.22;100.00;102275.19;5056607;28;20967;-68
2022/12/17 19:11:16;;;;;;;23.97;10.77;;;;;;;-5.25;100.00;102277.53;5052755;28;20853;-68
2022/12/17 19:13:43;;;;;;;25.53;12.50;;;;;;;-5.29;100.00;102282.28;5037394;28;20462;-69
2022/12/17 19:16:12;;;;;;;28.47;10.93;;;;;;;-5.28;100.00;102289.16;5053464;28;20467;-68
2022/12/17 19:18:39;;;;;;;28.57;12.27;;;;;;;-5.26;100.00;102297.75;5041104;28;20808;-69
2022/12/17 19:21:07;;;;;;;28.33;11.67;;;;;;;-5.24;100.00;102299.63;5054098;28;21022;-69
2022/12/17 19:23:34;;;;;;;25.47;11.47;;;;;;;-5.28;100.00;102294.25;5057960;28;20459;-69
2022/12/17 19:26:11;;;;;;;27.77;12.07;;;;;;;-5.29;100.00;102306.09;5059240;28;20908;-68
2022/12/17 19:28:39;;;;;;;30.97;11.77;;;;;;;-5.30;100.00;102298.34;5054343;28;20463;-71
2022/12/17 19:31:06;;;;;;;22.93;9.87;;;;;;;-5.33;100.00;102299.00;5054560;28;20459;-71
2022/12/17 19:33:32;;;;;;;25.10;10.23;;;;;;;-5.34;100.00;102299.81;5055500;28;20466;-71
2022/12/17 19:36:00;;;;;;;22.97;10.47;;;;;;;-5.30;100.00;102308.53;5056066;28;20454;-70
2022/12/17 19:38:27;;;;;;;22.07;10.63;;;;;;;-5.39;100.00;102307.13;5053332;28;20502;-71
2022/12/17 19:40:53;;;;;;;27.87;10.20;;;;;;;-5.44;100.00;102300.00;5051558;28;20915;-70
2022/12/17 19:43:21;;;;;;;24.13;10.07;;;;;;;-5.43;100.00;102302.63;5057454;28;20467;-71
2022/12/17 19:45:47;;;;;;;23.87;9.87;;;;;;;-5.45;100.00;102316.91;5050151;28;20473;-70
2022/12/17 19:48:15;;;;;;;23.07;10.77;;;;;;;-5.46;100.00;102314.25;5026929;28;21106;-71
2022/12/17 19:50:42;;;;;;;18.97;9.23;;;;;;;-5.49;100.00;102314.06;5054327;28;20863;-70
2022/12/17 19:53:08;;;;;;;20.53;10.80;;;;;;;-5.52;100.00;102310.53;5053368;28;20495;-71
2022/12/17 19:55:34;;;;;;;15.63;9.43;;;;;;;-5.48;100.00;102308.22;5041574;28;20464;-70
2022/12/17 19:58:02;;;;;;;18.07;7.97;;;;;;;-5.46;100.00;102316.81;5046420;28;20472;-70
2022/12/17 20:00:30;;;;;;;19.00;8.87;;;;;;;-5.44;100.00;102307.63;5051505;28;20489;-71
2022/12/17 20:02:56;;;;;;;22.90;10.10;;;;;;;-5.45;100.00;102310.94;5050252;28;21031;-71
2022/12/17 20:05:23;;;;;;;24.17;11.43;;;;;;;-5.49;100.00;102319.13;5049714;28;20468;-71
2022/12/17 20:07:49;;;;;;;20.03;9.93;;;;;;;-5.45;100.00;102321.09;5035931;28;21008;-71
2022/12/17 20:10:16;;;;;;;25.43;11.17;;;;;;;-5.43;100.00;102325.53;5054876;28;20518;-70
2022/12/17 20:12:42;;;;;;;24.17;10.50;;;;;;;-5.42;100.00;102334.00;5049460;28;20465;-69
2022/12/17 20:15:10;;;;;;;22.80;11.03;;;;;;;-5.47;100.00;102338.81;5049660;28;20478;-71
2022/12/17 20:17:38;;;;;;;22.63;10.50;;;;;;;-5.46;100.00;102339.69;5049492;28;20490;-71
2022/12/17 20:20:05;;;;;;;17.13;9.00;;;;;;;-5.52;100.00;102353.75;5045706;28;20491;-70
2022/12/17 20:22:32;;;;;;;20.40;9.63;;;;;;;-5.47;100.00;102348.09;5054472;28;20461;-71
2022/12/17 20:25:00;;;;;;;27.63;12.07;;;;;;;-5.47;100.00;102345.53;5052472;28;20466;-71
2022/12/17 20:27:26;;;;;;;22.57;9.63;;;;;;;-5.54;100.00;102350.22;5056415;28;20506;-71
2022/12/17 20:29:53;;;;;;;17.80;9.40;;;;;;;-5.55;100.00;102348.47;5054906;28;20490;-70
2022/12/17 20:32:20;;;;;;;24.17;10.00;;;;;;;-5.53;100.00;102348.56;5056309;28;20553;-71
2022/12/17 20:34:47;;;;;;;21.07;8.77;;;;;;;-5.52;100.00;102356.28;5036330;28;20464;-71
2022/12/17 20:37:14;;;;;;;22.60;9.67;;;;;;;-5.55;100.00;102355.22;5051472;28;20466;-71
2022/12/17 20:39:40;;;;;;;16.77;9.07;;;;;;;-5.60;100.00;102356.56;5049779;28;20494;-71
2022/12/17 20:42:08;;;;;;;19.27;8.47;;;;;;;-5.61;100.00;102350.59;5051658;28;20450;-71
2022/12/17 20:44:34;;;;;;;22.37;9.07;;;;;;;-5.60;100.00;102357.44;5052535;28;20799;-72
2022/12/17 20:47:02;;;;;;;23.07;9.43;;;;;;;-5.60;100.00;102357.44;5052990;28;20474;-72
2022/12/17 20:49:31;;;;;;;17.27;8.87;;;;;;;-5.61;100.00;102363.31;5051911;28;20491;-71
2022/12/17 20:51:59;;;;;;;19.13;9.23;;;;;;;-5.65;100.00;102361.31;5053720;28;20912;-71
2022/12/17 20:54:25;;;;;;;24.23;9.20;;;;;;;-5.67;100.00;102360.34;5052981;28;20462;-71
2022/12/17 20:56:51;;;;;;;18.47;9.00;;;;;;;-5.71;100.00;102368.53;5050753;28;21085;-71
2022/12/17 20:59:18;;;;;;;21.47;8.40;;;;;;;-5.69;100.00;102366.97;5054781;28;20864;-71
2022/12/17 21:01:46;;;;;;;16.20;8.40;;;;;;;-5.66;100.00;102374.81;5055755;28;20489;-71
2022/12/17 21:04:13;;;;;;;23.83;9.77;;;;;;;-5.69;100.00;102364.44;5053374;28;20467;-71
2022/12/17 21:06:42;;;;;;;21.83;9.70;;;;;;;-5.67;100.00;102367.09;5055693;28;20486;-71
2022/12/17 21:09:10;;;;;;;21.47;9.80;;;;;;;-5.67;100.00;102367.97;5053096;28;20539;-69
2022/12/17 21:11:38;;;;;;;17.27;8.03;;;;;;;-5.68;100.00;102373.84;5057775;28;20479;-71
2022/12/17 21:14:07;;;;;;;19.37;9.93;;;;;;;-5.70;100.00;102377.91;5054561;28;20466;-69
2022/12/17 21:16:34;;;;;;;19.03;8.23;;;;;;;-5.73;100.00;102375.19;5056957;28;20977;-68
2022/12/17 21:19:02;;;;;;;16.87;7.77;;;;;;;-5.72;100.00;102377.84;5054119;28;20478;-68
2022/12/17 21:21:31;;;;;;;16.30;8.60;;;;;;;-5.64;100.00;102377.47;5056287;28;20925;-68
2022/12/17 21:23:59;;;;;;;20.13;8.87;;;;;;;-5.70;100.00;102390.63;5053820;28;21258;-69
2022/12/17 21:26:29;;;;;;;17.87;8.50;;;;;;;-5.66;100.00;102406.97;5058362;28;20474;-69
2022/12/17 21:28:56;;;;;;;23.33;9.40;;;;;;;-5.67;100.00;102416.25;5054349;28;20486;-69
2022/12/17 21:31:25;;;;;;;19.40;9.67;;;;;;;-5.63;100.00;102408.03;5053972;28;20561;-69
2022/12/17 21:33:54;;;;;;;18.87;9.47;;;;;;;-5.64;100.00;102396.13;5048880;28;20503;-69
2022/12/17 21:36:21;;;;;;;19.40;8.30;;;;;;;-5.64;100.00;102410.50;5054376;28;20466;-69
2022/12/17 21:38:48;;;;;;;19.03;8.10;;;;;;;-5.68;100.00;102411.97;5049627;28;20478;-69
2022/12/17 21:41:16;;;;;;;17.27;7.90;;;;;;;-5.73;100.00;102415.84;5054341;28;20464;-69
2022/12/17 21:43:44;;;;;;;16.87;7.80;;;;;;;-5.76;100.00;102420.72;5053252;28;20806;-68
2022/12/17 21:46:11;;;;;;;17.43;9.10;;;;;;;-5.75;100.00;102417.38;5056148;28;20826;-69
2022/12/17 21:48:40;;;;;;;16.10;7.67;;;;;;;-5.75;100.00;102419.91;5056178;28;20784;-69
2022/12/17 21:51:09;;;;;;;18.73;9.13;;;;;;;-5.78;100.00;102424.81;5053114;28;20463;-69
2022/12/17 21:53:36;;;;;;;16.40;8.17;;;;;;;-5.78;100.00;102420.59;5049858;28;20839;-70
2022/12/17 21:56:03;;;;;;;16.63;8.23;;;;;;;-5.78;100.00;102423.16;5055532;28;20458;-70
2022/12/17 21:58:30;;;;;;;15.53;7.97;;;;;;;-5.82;100.00;102423.72;5054162;28;20454;-69
2022/12/17 22:00:57;;;;;;;20.00;8.67;;;;;;;-5.79;100.00;102425.56;5048961;28;20495;-69
2022/12/17 22:03:24;;;;;;;21.10;9.27;;;;;;;-5.82;100.00;102431.34;5054411;28;20472;-70
2022/12/17 22:05:50;;;;;;;22.60;8.10;;;;;;;-5.83;100.00;102431.22;5048857;28;20471;-69
2022/12/17 22:08:17;;;;;;;21.27;10.13;;;;;;;-5.82;100.00;102428.81;5055842;28;20481;-70
2022/12/17 22:10:43;;;;;;;25.03;10.03;;;;;;;-5.80;100.00;102428.91;5049587;28;20486;-69
2022/12/17 22:16:10;;;;;;;21.17;9.33;;;;;;;-5.73;100.00;102423.47;4971538;28;20483;-69
2022/12/17 22:18:36;;;;;;;22.17;8.57;;;;;;;-5.70;100.00;102421.13;4977344;28;20498;-69
2022/12/17 22:21:03;;;;;;;17.27;8.93;;;;;;;-5.67;100.00;102420.47;4992719;28;20901;-68
2022/12/17 22:23:29;;;;;;;23.73;9.60;;;;;;;-5.70;100.00;102431.28;5051701;28;20458;-69
2022/12/17 22:25:56;;;;;;;20.27;8.63;;;;;;;-5.69;100.00;102433.06;5056034;28;20862;-69
2022/12/17 22:28:22;;;;;;;29.87;8.70;;;;;;;-5.75;100.00;102436.06;5056625;28;20481;-69
2022/12/17 22:33:34;;;;;;;22.10;7.97;;;;;;;-5.71;100.00;102432.06;5053576;28;20471;-70
2022/12/17 22:36:01;;;;;;;17.30;8.60;;;;;;;-5.72;100.00;102438.84;5050451;28;20458;-69
2022/12/17 22:38:28;;;;;;;24.37;10.13;;;;;;;-5.75;100.00;102440.25;5055530;28;21072;-69
2022/12/17 22:40:55;;;;;;;26.57;9.03;;;;;;;-5.78;100.00;102440.94;5057197;28;20475;-69
2022/12/17 22:43:29;;;;;;;27.00;11.27;;;;;;;-5.76;100.00;102443.59;5056812;28;20606;-70
2022/12/17 22:45:59;;;;;;;26.37;10.57;;;;;;;-5.69;100.00;102445.75;5056134;28;20464;-69
2022/12/17 22:48:25;;;;;;;21.63;9.17;;;;;;;-5.67;100.00;102446.75;5051326;28;20713;-69
2022/12/17 22:50:53;;;;;;;23.17;8.77;;;;;;;-5.72;100.00;102453.16;5053112;28;20470;-70
2022/12/17 22:53:20;;;;;;;23.97;10.23;;;;;;;-5.72;100.00;102450.63;5057835;28;20741;-70
2022/12/17 22:55:47;;;;;;;24.20;10.30;;;;;;;-5.67;100.00;102453.50;5053869;28;20512;-70
2022/12/17 22:58:13;;;;;;;24.57;8.97;;;;;;;-5.74;100.00;102450.53;5060505;28;20592;-69
2022/12/17 23:00:40;;;;;;;30.07;10.43;;;;;;;-5.73;100.00;102453.97;5055226;28;20480;-69
2022/12/17 23:03:06;;;;;;;21.97;9.97;;;;;;;-5.73;100.00;102461.59;5052704;28;20598;-70
2022/12/17 23:05:32;;;;;;;29.77;10.70;;;;;;;-5.74;100.00;102470.84;5051615;28;20465;-68
2022/12/17 23:08:00;;;;;;;23.93;9.40;;;;;;;-5.68;100.00;102464.44;5057956;28;20482;-69
2022/12/17 23:10:28;;;;;;;23.10;9.10;;;;;;;-5.67;100.00;102466.22;5063156;22;20573;-74
2022/12/17 23:12:55;;;;;;;30.07;10.23;;;;;;;-5.66;100.00;102480.66;5039066;28;20467;-74
2022/12/17 23:15:28;;;;;;;24.77;10.77;;;;;;;-5.62;100.00;102472.50;5042244;28;20442;-74
2022/12/17 23:17:57;;;;;;;22.60;9.53;;;;;;;-5.63;100.00;102470.72;5035873;28;20464;-74
2022/12/17 23:20:24;;;;;;;24.23;10.07;;;;;;;-5.62;100.00;102472.50;5028597;28;20486;-74
2022/12/17 23:22:50;;;;;;;25.47;9.80;;;;;;;-5.57;100.00;102474.56;5024410;28;20981;-74
2022/12/17 23:25:18;;;;;;;31.90;11.17;;;;;;;-5.54;100.00;102479.88;5016360;28;21002;-74
2022/12/17 23:27:46;;;;;;;29.17;10.67;;;;;;;-5.59;100.00;102475.25;5022361;28;20492;-75
2022/12/17 23:30:14;;;;;;;28.33;11.37;;;;;;;-5.61;100.00;102477.69;5019625;28;20975;-74
2022/12/17 23:32:41;;;;;;;23.03;10.40;;;;;;;-5.60;100.00;102486.19;5021258;28;20466;-74
2022/12/17 23:35:08;;;;;;;26.93;10.47;;;;;;;-5.60;100.00;102487.06;5020459;28;20458;-74
2022/12/17 23:37:35;;;;;;;26.33;9.47;;;;;;;-5.61;100.00;102485.31;5023867;28;20459;-74
2022/12/17 23:40:02;;;;;;;27.77;10.17;;;;;;;-5.64;100.00;102481.69;5017201;28;20487;-74
2022/12/17 23:42:30;;;;;;;22.53;10.03;;;;;;;-5.64;100.00;102485.09;5022408;28;20466;-74
2022/12/17 23:44:56;;;;;;;26.97;10.43;;;;;;;-5.63;100.00;102483.44;5018486;28;20467;-74
2022/12/17 23:47:23;;;;;;;22.33;10.10;;;;;;;-5.61;100.00;102484.41;5022154;28;20487;-74
2022/12/17 23:49:49;;;;;;;29.80;10.67;;;;;;;-5.62;100.00;102492.81;5021752;28;20481;-73
2022/12/17 23:52:15;;;;;;;30.40;10.93;;;;;;;-5.65;100.00;102493.47;5022333;28;20454;-74
2022/12/17 23:54:42;;;;;;;24.70;10.27;;;;;;;-5.61;100.00;102504.75;5016515;28;20474;-74
2022/12/17 23:57:08;;;;;;;27.17;11.77;;;;;;;-5.58;100.00;102498.22;5020854;28;21066;-74
2022/12/17 23:59:36;;;;;;;34.77;12.47;;;;;;;-5.60;100.00;102497.22;5024043;28;20473;-74
